Time;durP1;ratioP1;P1;durP2;ratioP2;P2;SDS_P1;SDS_P2;PMS_P1;PMS_P2;Temp;Humidity;BMP_temperature;BMP_pressure;BME280_temperature;BME280_humidity;BME280_pressure;Samples;Min_cycle;Max_cycle;Signal;HPM_P1;HPM_P2
2023/11/07 00:00:02;;;;;;;7.80;3.17;;;9.30;99.90;;;;;;6133537;23;20179;-81
2023/11/07 00:02:30;;;;;;;10.73;3.33;;;9.20;99.90;;;;;;6157551;23;20206;-81
2023/11/07 00:04:58;;;;;;;6.43;2.90;;;9.20;99.90;;;;;;6158546;23;20171;-82
2023/11/07 00:07:25;;;;;;;7.43;2.90;;;9.20;99.90;;;;;;6133484;23;20178;-82
2023/11/07 21:37:24;;;;;;;17.33;9.27;;;9.30;99.90;;;;;;5109735;27;20616;-82
2023/11/07 21:39:52;;;;;;;16.47;8.97;;;9.40;99.90;;;;;;5109827;28;20197;-83
2023/11/07 21:42:19;;;;;;;18.07;9.17;;;9.40;99.90;;;;;;5108665;28;20192;-82
2023/11/07 21:44:46;;;;;;;18.53;9.33;;;9.30;99.90;;;;;;5108805;28;20204;-83
2023/11/07 21:47:16;;;;;;;16.07;8.37;;;9.30;99.90;;;;;;5108418;28;20189;-85
2023/11/07 21:49:43;;;;;;;16.77;8.77;;;9.20;99.90;;;;;;5091528;28;20223;-83
2023/11/07 21:52:11;;;;;;;15.43;8.80;;;9.20;99.90;;;;;;5109759;28;20668;-83
2023/11/07 21:54:40;;;;;;;16.27;8.60;;;9.10;99.90;;;;;;5108315;28;20280;-83
2023/11/07 21:57:07;;;;;;;17.03;8.60;;;9.10;99.90;;;;;;5108180;28;20277;-81
2023/11/07 21:59:35;;;;;;;17.37;8.27;;;9.00;99.90;;;;;;5109799;28;20197;-83
2023/11/07 22:02:02;;;;;;;17.10;8.57;;;9.10;99.90;;;;;;5108234;28;20193;-82
2023/11/07 22:04:29;;;;;;;16.83;9.20;;;9.00;99.90;;;;;;5109678;28;20201;-82
2023/11/07 22:06:56;;;;;;;16.77;8.80;;;9.00;99.90;;;;;;5109360;28;20709;-83
2023/11/07 22:09:23;;;;;;;16.73;8.77;;;9.00;99.90;;;;;;5108081;28;20651;-83
2023/11/07 22:11:51;;;;;;;17.30;8.13;;;9.00;99.90;;;;;;5108211;28;20252;-84
2023/11/07 22:14:19;;;;;;;16.57;7.60;;;9.00;99.90;;;;;;5108005;28;20199;-83
2023/11/07 22:16:46;;;;;;;16.03;8.27;;;8.90;99.90;;;;;;5109249;28;20184;-83
2023/11/07 22:19:13;;;;;;;18.93;9.27;;;8.80;99.90;;;;;;5109466;28;20196;-83
2023/11/07 22:21:40;;;;;;;14.07;8.00;;;8.70;99.90;;;;;;5107918;28;20235;-83
2023/11/07 22:24:08;;;;;;;16.20;8.70;;;8.60;99.90;;;;;;5107809;28;20223;-84
2023/11/07 22:26:35;;;;;;;14.13;7.83;;;8.60;99.90;;;;;;5109121;28;20255;-83
2023/11/07 22:29:02;;;;;;;14.37;8.20;;;8.50;99.90;;;;;;5108938;28;20284;-84
2023/11/07 22:31:29;;;;;;;16.60;8.40;;;8.50;99.90;;;;;;5107683;28;20200;-84
2023/11/07 22:33:56;;;;;;;16.40;8.33;;;8.40;99.90;;;;;;5108858;28;20246;-83
2023/11/07 22:36:26;;;;;;;16.30;8.43;;;8.30;99.90;;;;;;5105835;28;20311;-83
2023/11/07 22:38:53;;;;;;;15.60;7.93;;;8.30;99.90;;;;;;5095486;28;20196;-85
2023/11/07 22:41:20;;;;;;;16.73;8.47;;;8.30;99.90;;;;;;5095155;28;20304;-85
2023/11/07 22:43:48;;;;;;;16.07;8.23;;;8.30;99.90;;;;;;5095173;28;20188;-85
2023/11/07 22:46:15;;;;;;;17.30;8.47;;;8.20;99.90;;;;;;5093709;28;20232;-84
2023/11/07 22:48:42;;;;;;;15.53;8.20;;;8.10;99.90;;;;;;5093715;28;20212;-84
2023/11/07 22:51:09;;;;;;;17.73;8.53;;;8.00;99.90;;;;;;5095047;28;20202;-84
2023/11/07 22:53:37;;;;;;;17.67;8.77;;;8.00;99.90;;;;;;5095271;28;20650;-85
2023/11/07 22:56:04;;;;;;;16.57;9.00;;;8.00;99.90;;;;;;5094918;28;20209;-85
2023/11/07 22:58:31;;;;;;;16.53;8.73;;;7.90;99.90;;;;;;5094924;28;20193;-85
2023/11/07 23:01:01;;;;;;;18.13;8.73;;;7.90;99.90;;;;;;5094907;28;20214;-85
2023/11/07 23:03:28;;;;;;;16.10;8.60;;;7.90;99.90;;;;;;5093757;28;20299;-84
2023/11/07 23:05:55;;;;;;;17.17;8.80;;;7.90;99.90;;;;;;5094003;28;20232;-86
2023/11/07 23:08:23;;;;;;;17.13;8.40;;;7.80;99.90;;;;;;5094223;28;20232;-86
2023/11/07 23:10:50;;;;;;;18.37;9.43;;;7.80;99.90;;;;;;5093455;28;20217;-84
2023/11/07 23:13:17;;;;;;;17.60;9.10;;;7.70;99.90;;;;;;5093321;28;20208;-85
2023/11/07 23:15:47;;;;;;;14.67;8.37;;;7.70;99.90;;;;;;5094842;28;20250;-84
2023/11/07 23:18:14;;;;;;;16.03;8.60;;;7.70;99.90;;;;;;5094523;28;20221;-84
2023/11/07 23:20:41;;;;;;;15.20;8.37;;;7.60;99.90;;;;;;5094558;28;20200;-84
2023/11/07 23:23:09;;;;;;;16.43;8.77;;;7.50;99.90;;;;;;5093474;28;20245;-84
2023/11/07 23:25:36;;;;;;;18.63;8.77;;;7.50;99.90;;;;;;5092964;28;20228;-85
2023/11/07 23:28:04;;;;;;;15.47;8.73;;;7.50;99.90;;;;;;5094458;28;20221;-85
2023/11/07 23:30:31;;;;;;;17.60;8.10;;;7.50;99.90;;;;;;5094587;28;20299;-85
2023/11/07 23:32:58;;;;;;;15.00;8.00;;;7.50;99.90;;;;;;5094539;28;20219;-84
2023/11/07 23:35:27;;;;;;;14.60;8.40;;;7.40;99.90;;;;;;5092915;28;20244;-85
2023/11/07 23:37:56;;;;;;;15.00;8.43;;;7.40;99.90;;;;;;5092930;28;20196;-85
2023/11/07 23:40:24;;;;;;;15.47;9.07;;;7.50;99.90;;;;;;5092962;28;20219;-84
2023/11/07 23:42:51;;;;;;;17.77;8.67;;;7.40;99.90;;;;;;5094313;28;20192;-83
2023/11/07 23:45:18;;;;;;;18.50;9.37;;;7.40;99.90;;;;;;5092743;28;20200;-83
2023/11/07 23:47:45;;;;;;;17.63;9.63;;;7.20;99.90;;;;;;5075805;28;20238;-82
2023/11/07 23:50:13;;;;;;;18.93;9.43;;;7.20;99.90;;;;;;5091948;28;20713;-84
2023/11/07 23:52:40;;;;;;;16.10;8.83;;;7.20;99.90;;;;;;5075834;28;20633;-82
2023/11/07 23:55:08;;;;;;;18.57;9.63;;;7.10;99.90;;;;;;5093991;28;20192;-83
2023/11/07 23:57:35;;;;;;;18.57;9.37;;;7.20;99.90;;;;;;5093712;28;20285;-83
